sensor_id;sensor_type;location;lat;lon;timestamp;pressure;altitude;pressure_sealevel;temperature;humidity
24858;BME280;12935;50.782;6.074;2022-12-28T00:02:20;99700.13;;;6.90;100.00
24858;BME280;12935;50.782;6.074;2022-12-28T00:04:45;99709.13;;;6.72;100.00
24858;BME280;12935;50.782;6.074;2022-12-28T00:07:11;99703.50;;;6.84;100.00
24858;BME280;12935;50.782;6.074;2022-12-28T00:09:36;99704.63;;;6.83;100.00
24858;BME280;12935;50.782;6.074;2022-12-28T00:12:01;99687.91;;;6.81;100.00
24858;BME280;12935;50.782;6.074;2022-12-28T00:14:26;99686.84;;;6.85;100.00
24858;BME280;12935;50.782;6.074;2022-12-28T00:16:52;99684.19;;;6.89;100.00
24858;BME280;12935;50.782;6.074;2022-12-28T00:19:17;99668.34;;;6.94;100.00
24858;BME280;12935;50.782;6.074;2022-12-28T00:21:43;99677.91;;;7.11;100.00
24858;BME280;12935;50.782;6.074;2022-12-28T00:24:19;99679.84;;;7.11;100.00
24858;BME280;12935;50.782;6.074;2022-12-28T00:26:45;99668.66;;;6.89;100.00
24858;BME280;12935;50.782;6.074;2022-12-28T00:29:10;99673.69;;;6.87;100.00
24858;BME280;12935;50.782;6.074;2022-12-28T00:31:36;99671.25;;;7.05;100.00
24858;BME280;12935;50.782;6.074;2022-12-28T00:34:02;99668.53;;;7.05;100.00
24858;BME280;12935;50.782;6.074;2022-12-28T00:36:27;99653.25;;;6.97;100.00
24858;BME280;12935;50.782;6.074;2022-12-28T00:38:53;99665.84;;;7.09;100.00
24858;BME280;12935;50.782;6.074;2022-12-28T00:41:18;99654.25;;;6.85;100.00
24858;BME280;12935;50.782;6.074;2022-12-28T00:43:43;99661.66;;;6.88;100.00
24858;BME280;12935;50.782;6.074;2022-12-28T00:46:10;99643.09;;;6.94;100.00
24858;BME280;12935;50.782;6.074;2022-12-28T00:48:36;99650.31;;;6.83;100.00
24858;BME280;12935;50.782;6.074;2022-12-28T00:51:12;99648.16;;;6.92;100.00
24858;BME280;12935;50.782;6.074;2022-12-28T00:53:39;99658.22;;;6.91;100.00
24858;BME280;12935;50.782;6.074;2022-12-28T00:56:12;99652.03;;;6.94;100.00
24858;BME280;12935;50.782;6.074;2022-12-28T00:58:38;99652.88;;;6.98;100.00
24858;BME280;12935;50.782;6.074;2022-12-28T01:01:05;99655.34;;;7.07;100.00
24858;BME280;12935;50.782;6.074;2022-12-28T01:03:34;99632.50;;;7.12;100.00
24858;BME280;12935;50.782;6.074;2022-12-28T01:06:04;99613.47;;;7.12;100.00
24858;BME280;12935;50.782;6.074;2022-12-28T01:08:30;99609.47;;;7.02;100.00
24858;BME280;12935;50.782;6.074;2022-12-28T01:10:55;99592.88;;;7.07;100.00
24858;BME280;12935;50.782;6.074;2022-12-28T01:13:20;99591.91;;;6.96;100.00
24858;BME280;12935;50.782;6.074;2022-12-28T01:15:45;99583.94;;;6.80;100.00
24858;BME280;12935;50.782;6.074;2022-12-28T01:18:11;99597.88;;;6.79;100.00
24858;BME280;12935;50.782;6.074;2022-12-28T01:20:38;99583.00;;;6.95;100.00
24858;BME280;12935;50.782;6.074;2022-12-28T01:23:04;99576.19;;;7.09;100.00
24858;BME280;12935;50.782;6.074;2022-12-28T01:25:29;99594.94;;;7.17;100.00
24858;BME280;12935;50.782;6.074;2022-12-28T01:27:56;99588.13;;;7.00;100.00
24858;BME280;12935;50.782;6.074;2022-12-28T01:30:21;99578.44;;;7.03;100.00
24858;BME280;12935;50.782;6.074;2022-12-28T01:32:46;99575.31;;;7.01;100.00
24858;BME280;12935;50.782;6.074;2022-12-28T01:35:12;99554.78;;;7.03;100.00
24858;BME280;12935;50.782;6.074;2022-12-28T01:37:37;99568.69;;;6.98;100.00
24858;BME280;12935;50.782;6.074;2022-12-28T01:40:02;99556.19;;;6.94;100.00
24858;BME280;12935;50.782;6.074;2022-12-28T01:42:29;99557.44;;;7.00;100.00
24858;BME280;12935;50.782;6.074;2022-12-28T01:44:54;99557.56;;;7.11;100.00
24858;BME280;12935;50.782;6.074;2022-12-28T01:47:26;99565.91;;;7.25;100.00
24858;BME280;12935;50.782;6.074;2022-12-28T01:50:05;99530.88;;;7.16;100.00
24858;BME280;12935;50.782;6.074;2022-12-28T01:52:57;99555.44;;;7.27;100.00
24858;BME280;12935;50.782;6.074;2022-12-28T01:55:28;99532.31;;;7.40;100.00
24858;BME280;12935;50.782;6.074;2022-12-28T01:58:03;99533.38;;;7.32;100.00
24858;BME280;12935;50.782;6.074;2022-12-28T02:00:30;99525.97;;;7.29;100.00
24858;BME280;12935;50.782;6.074;2022-12-28T02:03:00;99529.06;;;7.27;100.00
24858;BME280;12935;50.782;6.074;2022-12-28T02:05:30;99514.63;;;7.20;100.00
24858;BME280;12935;50.782;6.074;2022-12-28T02:07:58;99494.94;;;7.30;100.00
24858;BME280;12935;50.782;6.074;2022-12-28T02:10:27;99504.16;;;7.22;100.00
24858;BME280;12935;50.782;6.074;2022-12-28T02:12:53;99500.78;;;7.32;100.00
24858;BME280;12935;50.782;6.074;2022-12-28T02:15:20;99491.44;;;7.29;100.00
24858;BME280;12935;50.782;6.074;2022-12-28T02:17:45;99500.19;;;7.16;100.00
24858;BME280;12935;50.782;6.074;2022-12-28T02:20:11;99489.34;;;7.16;100.00
24858;BME280;12935;50.782;6.074;2022-12-28T02:28:01;99490.94;;;7.20;100.00
24858;BME280;12935;50.782;6.074;2022-12-28T02:30:42;99496.84;;;7.29;100.00
24858;BME280;12935;50.782;6.074;2022-12-28T02:33:20;99488.91;;;7.47;100.00
24858;BME280;12935;50.782;6.074;2022-12-28T02:35:57;99476.00;;;7.37;100.00
24858;BME280;12935;50.782;6.074;2022-12-28T02:41:04;99465.59;;;7.46;100.00
24858;BME280;12935;50.782;6.074;2022-12-28T02:43:31;99469.00;;;7.36;100.00
24858;BME280;12935;50.782;6.074;2022-12-28T02:45:57;99457.03;;;7.44;100.00
24858;BME280;12935;50.782;6.074;2022-12-28T02:48:51;99466.81;;;7.52;100.00
24858;BME280;12935;50.782;6.074;2022-12-28T02:54:21;99450.06;;;7.47;100.00
24858;BME280;12935;50.782;6.074;2022-12-28T02:57:37;99458.69;;;7.56;100.00
24858;BME280;12935;50.782;6.074;2022-12-28T03:00:09;99440.06;;;7.58;100.00
24858;BME280;12935;50.782;6.074;2022-12-28T03:02:58;99443.56;;;7.58;100.00
24858;BME280;12935;50.782;6.074;2022-12-28T03:05:44;99440.91;;;7.65;100.00
24858;BME280;12935;50.782;6.074;2022-12-28T03:09:01;99440.91;;;7.65;100.00
24858;BME280;12935;50.782;6.074;2022-12-28T03:11:37;99428.81;;;7.59;100.00
24858;BME280;12935;50.782;6.074;2022-12-28T03:14:11;99442.78;;;7.58;100.00
24858;BME280;12935;50.782;6.074;2022-12-28T03:16:40;99428.16;;;7.73;100.00
24858;BME280;12935;50.782;6.074;2022-12-28T03:19:29;99428.09;;;7.66;100.00
24858;BME280;12935;50.782;6.074;2022-12-28T03:22:15;99425.41;;;7.69;100.00
24858;BME280;12935;50.782;6.074;2022-12-28T03:25:01;99437.78;;;7.63;100.00
24858;BME280;12935;50.782;6.074;2022-12-28T03:27:47;99430.53;;;7.78;100.00
24858;BME280;12935;50.782;6.074;2022-12-28T03:30:33;99432.47;;;7.78;100.00
24858;BME280;12935;50.782;6.074;2022-12-28T03:33:20;99407.28;;;7.88;100.00
24858;BME280;12935;50.782;6.074;2022-12-28T03:35:54;99409.19;;;7.80;100.00
24858;BME280;12935;50.782;6.074;2022-12-28T03:38:28;99405.75;;;7.87;100.00
24858;BME280;12935;50.782;6.074;2022-12-28T03:41:18;99395.91;;;7.75;100.00
24858;BME280;12935;50.782;6.074;2022-12-28T03:43:51;99413.03;;;7.75;100.00
24858;BME280;12935;50.782;6.074;2022-12-28T03:48:47;99394.41;;;7.81;100.00
24858;BME280;12935;50.782;6.074;2022-12-28T03:51:15;99380.03;;;7.81;100.00
24858;BME280;12935;50.782;6.074;2022-12-28T03:53:45;99371.09;;;7.80;100.00
24858;BME280;12935;50.782;6.074;2022-12-28T03:56:17;99381.66;;;7.92;100.00
24858;BME280;12935;50.782;6.074;2022-12-28T03:58:43;99380.50;;;7.93;100.00
24858;BME280;12935;50.782;6.074;2022-12-28T04:01:09;99379.72;;;7.93;100.00
24858;BME280;12935;50.782;6.074;2022-12-28T04:03:34;99365.78;;;7.98;100.00
24858;BME280;12935;50.782;6.074;2022-12-28T04:06:00;99366.44;;;7.81;100.00
24858;BME280;12935;50.782;6.074;2022-12-28T04:08:25;99370.75;;;7.89;100.00
24858;BME280;12935;50.782;6.074;2022-12-28T04:10:51;99359.09;;;7.88;100.00
24858;BME280;12935;50.782;6.074;2022-12-28T04:13:16;99362.59;;;7.85;100.00
24858;BME280;12935;50.782;6.074;2022-12-28T04:15:41;99364.59;;;7.95;100.00
24858;BME280;12935;50.782;6.074;2022-12-28T04:18:06;99373.88;;;7.91;100.00
24858;BME280;12935;50.782;6.074;2022-12-28T04:20:32;99377.00;;;7.93;100.00
24858;BME280;12935;50.782;6.074;2022-12-28T04:22:57;99357.22;;;7.96;100.00
24858;BME280;12935;50.782;6.074;2022-12-28T04:25:22;99372.69;;;7.88;100.00
24858;BME280;12935;50.782;6.074;2022-12-28T04:27:48;99352.50;;;7.89;100.00
24858;BME280;12935;50.782;6.074;2022-12-28T04:30:13;99353.34;;;7.97;100.00
24858;BME280;12935;50.782;6.074;2022-12-28T04:32:38;99344.41;;;8.03;100.00
24858;BME280;12935;50.782;6.074;2022-12-28T04:35:04;99360.00;;;8.06;100.00
24858;BME280;12935;50.782;6.074;2022-12-28T04:37:29;99345.59;;;8.06;100.00
24858;BME280;12935;50.782;6.074;2022-12-28T04:39:55;99340.53;;;8.01;100.00
24858;BME280;12935;50.782;6.074;2022-12-28T04:42:20;99342.06;;;7.98;100.00
24858;BME280;12935;50.782;6.074;2022-12-28T04:44:45;99332.38;;;8.01;100.00
24858;BME280;12935;50.782;6.074;2022-12-28T04:47:11;99351.81;;;8.03;100.00
24858;BME280;12935;50.782;6.074;2022-12-28T04:49:37;99314.50;;;8.03;100.00
24858;BME280;12935;50.782;6.074;2022-12-28T04:52:02;99311.00;;;8.03;100.00
24858;BME280;12935;50.782;6.074;2022-12-28T04:54:28;99318.47;;;8.17;100.00
24858;BME280;12935;50.782;6.074;2022-12-28T04:56:53;99339.13;;;8.28;100.00
24858;BME280;12935;50.782;6.074;2022-12-28T04:59:18;99330.50;;;8.12;100.00
24858;BME280;12935;50.782;6.074;2022-12-28T05:01:43;99344.44;;;8.07;100.00
24858;BME280;12935;50.782;6.074;2022-12-28T05:04:09;99325.03;;;8.08;100.00
24858;BME280;12935;50.782;6.074;2022-12-28T05:06:34;99313.03;;;8.17;100.00
24858;BME280;12935;50.782;6.074;2022-12-28T05:08:59;99355.41;;;8.18;100.00
24858;BME280;12935;50.782;6.074;2022-12-28T05:11:27;99323.16;;;8.23;100.00
24858;BME280;12935;50.782;6.074;2022-12-28T05:13:53;99339.09;;;8.18;100.00
24858;BME280;12935;50.782;6.074;2022-12-28T05:16:21;99327.50;;;8.35;100.00
24858;BME280;12935;50.782;6.074;2022-12-28T05:18:47;99340.28;;;8.27;100.00
24858;BME280;12935;50.782;6.074;2022-12-28T05:23:39;99361.75;;;8.39;100.00
24858;BME280;12935;50.782;6.074;2022-12-28T05:26:06;99338.84;;;8.48;100.00
24858;BME280;12935;50.782;6.074;2022-12-28T05:28:32;99343.81;;;8.31;100.00
24858;BME280;12935;50.782;6.074;2022-12-28T05:30:59;99334.56;;;8.43;100.00
24858;BME280;12935;50.782;6.074;2022-12-28T05:33:27;99320.94;;;8.43;100.00
24858;BME280;12935;50.782;6.074;2022-12-28T05:35:53;99335.72;;;8.42;100.00
24858;BME280;12935;50.782;6.074;2022-12-28T05:38:18;99330.69;;;8.48;100.00
24858;BME280;12935;50.782;6.074;2022-12-28T05:40:43;99326.41;;;8.54;100.00
24858;BME280;12935;50.782;6.074;2022-12-28T05:43:08;99316.16;;;8.22;100.00
24858;BME280;12935;50.782;6.074;2022-12-28T05:45:34;99324.31;;;8.22;100.00
24858;BME280;12935;50.782;6.074;2022-12-28T05:47:59;99333.28;;;8.26;100.00
24858;BME280;12935;50.782;6.074;2022-12-28T05:50:24;99335.66;;;8.35;100.00
24858;BME280;12935;50.782;6.074;2022-12-28T05:52:50;99326.75;;;8.38;100.00
24858;BME280;12935;50.782;6.074;2022-12-28T05:55:15;99315.09;;;8.41;100.00
24858;BME280;12935;50.782;6.074;2022-12-28T05:57:40;99324.03;;;8.38;100.00
24858;BME280;12935;50.782;6.074;2022-12-28T06:00:06;99316.25;;;8.40;100.00
24858;BME280;12935;50.782;6.074;2022-12-28T06:02:32;99314.66;;;8.35;100.00
24858;BME280;12935;50.782;6.074;2022-12-28T06:04:57;99313.94;;;8.42;100.00
24858;BME280;12935;50.782;6.074;2022-12-28T06:07:22;99312.78;;;8.43;100.00
24858;BME280;12935;50.782;6.074;2022-12-28T06:09:48;99292.91;;;8.39;100.00
24858;BME280;12935;50.782;6.074;2022-12-28T06:12:13;99309.13;;;8.21;100.00
24858;BME280;12935;50.782;6.074;2022-12-28T06:14:38;99291.25;;;8.20;100.00
24858;BME280;12935;50.782;6.074;2022-12-28T06:17:03;99291.69;;;8.29;100.00
24858;BME280;12935;50.782;6.074;2022-12-28T06:19:29;99290.09;;;8.25;100.00
24858;BME280;12935;50.782;6.074;2022-12-28T06:21:54;99294.06;;;8.34;100.00
24858;BME280;12935;50.782;6.074;2022-12-28T06:24:19;99280.47;;;8.38;100.00
24858;BME280;12935;50.782;6.074;2022-12-28T06:26:45;99266.78;;;8.24;100.00
24858;BME280;12935;50.782;6.074;2022-12-28T06:29:10;99287.81;;;8.30;100.00
24858;BME280;12935;50.782;6.074;2022-12-28T06:31:38;99286.25;;;8.29;100.00
24858;BME280;12935;50.782;6.074;2022-12-28T06:34:05;99273.03;;;8.31;100.00
24858;BME280;12935;50.782;6.074;2022-12-28T06:36:37;99276.91;;;8.30;100.00
24858;BME280;12935;50.782;6.074;2022-12-28T06:39:05;99267.25;;;8.33;100.00
24858;BME280;12935;50.782;6.074;2022-12-28T06:41:31;99258.28;;;8.36;100.00
24858;BME280;12935;50.782;6.074;2022-12-28T06:43:57;99272.69;;;8.36;100.00
24858;BME280;12935;50.782;6.074;2022-12-28T06:46:24;99270.28;;;8.24;100.00
24858;BME280;12935;50.782;6.074;2022-12-28T06:48:50;99279.66;;;8.30;100.00
24858;BME280;12935;50.782;6.074;2022-12-28T06:51:20;99288.56;;;8.27;100.00
24858;BME280;12935;50.782;6.074;2022-12-28T06:53:47;99276.50;;;8.25;100.00
24858;BME280;12935;50.782;6.074;2022-12-28T06:56:15;99266.38;;;8.15;100.00
24858;BME280;12935;50.782;6.074;2022-12-28T06:58:41;99271.84;;;8.29;100.00
24858;BME280;12935;50.782;6.074;2022-12-28T07:03:48;99274.53;;;8.15;100.00
24858;BME280;12935;50.782;6.074;2022-12-28T07:06:15;99279.94;;;8.07;100.00
24858;BME280;12935;50.782;6.074;2022-12-28T07:08:41;99274.91;;;8.20;100.00
24858;BME280;12935;50.782;6.074;2022-12-28T07:11:13;99268.72;;;8.23;100.00
24858;BME280;12935;50.782;6.074;2022-12-28T07:13:39;99267.25;;;8.33;100.00
24858;BME280;12935;50.782;6.074;2022-12-28T07:16:07;99286.59;;;8.24;100.00
24858;BME280;12935;50.782;6.074;2022-12-28T07:18:34;99279.59;;;8.16;100.00
24858;BME280;12935;50.782;6.074;2022-12-28T07:21:03;99265.97;;;8.20;100.00
24858;BME280;12935;50.782;6.074;2022-12-28T07:23:28;99277.28;;;8.18;100.00
24858;BME280;12935;50.782;6.074;2022-12-28T07:25:56;99280.75;;;8.15;100.00
24858;BME280;12935;50.782;6.074;2022-12-28T07:28:23;99267.16;;;8.22;100.00
24858;BME280;12935;50.782;6.074;2022-12-28T07:30:48;99262.50;;;8.26;100.00
24858;BME280;12935;50.782;6.074;2022-12-28T07:33:13;99258.59;;;8.17;100.00
24858;BME280;12935;50.782;6.074;2022-12-28T07:35:39;99266.00;;;8.27;100.00
24858;BME280;12935;50.782;6.074;2022-12-28T07:38:04;99271.91;;;8.32;100.00
24858;BME280;12935;50.782;6.074;2022-12-28T07:40:29;99259.06;;;8.33;100.00
24858;BME280;12935;50.782;6.074;2022-12-28T07:42:54;99264.47;;;8.29;100.00
24858;BME280;12935;50.782;6.074;2022-12-28T07:45:20;99274.25;;;8.41;100.00
24858;BME280;12935;50.782;6.074;2022-12-28T07:47:45;99262.22;;;8.53;100.00
24858;BME280;12935;50.782;6.074;2022-12-28T07:50:10;99271.19;;;8.57;100.00
24858;BME280;12935;50.782;6.074;2022-12-28T07:52:36;99277.00;;;8.48;100.00
24858;BME280;12935;50.782;6.074;2022-12-28T07:55:01;99265.75;;;8.50;100.00
24858;BME280;12935;50.782;6.074;2022-12-28T07:57:27;99277.41;;;8.47;100.00
24858;BME280;12935;50.782;6.074;2022-12-28T07:59:52;99271.56;;;8.55;100.00
24858;BME280;12935;50.782;6.074;2022-12-28T08:02:17;99260.28;;;8.53;100.00
24858;BME280;12935;50.782;6.074;2022-12-28T08:04:43;99267.25;;;8.40;100.00
24858;BME280;12935;50.782;6.074;2022-12-28T08:07:08;99259.13;;;8.54;100.00
24858;BME280;12935;50.782;6.074;2022-12-28T08:09:33;99250.97;;;8.58;100.00
24858;BME280;12935;50.782;6.074;2022-12-28T08:11:58;99242.75;;;8.51;100.00
24858;BME280;12935;50.782;6.074;2022-12-28T08:14:24;99242.78;;;8.58;100.00
24858;BME280;12935;50.782;6.074;2022-12-28T08:16:49;99252.13;;;8.46;100.00
24858;BME280;12935;50.782;6.074;2022-12-28T08:19:14;99254.06;;;8.49;100.00
24858;BME280;12935;50.782;6.074;2022-12-28T08:21:42;99253.66;;;8.43;100.00
24858;BME280;12935;50.782;6.074;2022-12-28T08:24:09;99261.47;;;8.56;100.00
24858;BME280;12935;50.782;6.074;2022-12-28T08:26:38;99273.53;;;8.58;100.00
24858;BME280;12935;50.782;6.074;2022-12-28T08:29:06;99250.19;;;8.57;100.00
24858;BME280;12935;50.782;6.074;2022-12-28T08:31:34;99269.28;;;8.71;100.00
24858;BME280;12935;50.782;6.074;2022-12-28T08:34:01;99298.44;;;8.71;100.00
24858;BME280;12935;50.782;6.074;2022-12-28T08:36:27;99268.91;;;8.76;100.00
24858;BME280;12935;50.782;6.074;2022-12-28T08:38:52;99283.31;;;8.77;100.00
24858;BME280;12935;50.782;6.074;2022-12-28T08:41:20;99279.78;;;8.84;100.00
24858;BME280;12935;50.782;6.074;2022-12-28T08:43:46;99266.13;;;8.66;100.00
24858;BME280;12935;50.782;6.074;2022-12-28T08:46:13;99268.50;;;8.82;100.00
24858;BME280;12935;50.782;6.074;2022-12-28T08:48:40;99273.19;;;8.88;100.00
24858;BME280;12935;50.782;6.074;2022-12-28T08:51:11;99275.53;;;8.90;100.00
24858;BME280;12935;50.782;6.074;2022-12-28T08:53:38;99272.41;;;8.77;100.00
24858;BME280;12935;50.782;6.074;2022-12-28T08:58:37;99278.63;;;8.85;100.00
24858;BME280;12935;50.782;6.074;2022-12-28T09:03:34;99272.41;;;8.73;100.00
24858;BME280;12935;50.782;6.074;2022-12-28T09:06:02;99275.53;;;8.86;100.00
24858;BME280;12935;50.782;6.074;2022-12-28T09:08:27;99251.41;;;8.88;100.00
24858;BME280;12935;50.782;6.074;2022-12-28T09:10:53;99270.47;;;8.99;100.00
24858;BME280;12935;50.782;6.074;2022-12-28T09:13:18;99270.88;;;9.01;100.00
24858;BME280;12935;50.782;6.074;2022-12-28T09:15:43;99252.97;;;8.93;100.00
24858;BME280;12935;50.782;6.074;2022-12-28T09:18:08;99256.09;;;9.09;100.00
24858;BME280;12935;50.782;6.074;2022-12-28T09:20:34;99256.09;;;8.95;100.00
24858;BME280;12935;50.782;6.074;2022-12-28T09:22:59;99259.97;;;9.08;100.00
24858;BME280;12935;50.782;6.074;2022-12-28T09:25:24;99254.13;;;9.13;100.00
24858;BME280;12935;50.782;6.074;2022-12-28T09:27:49;99255.69;;;9.18;100.00
24858;BME280;12935;50.782;6.074;2022-12-28T09:30:15;99251.41;;;8.92;100.00
24858;BME280;12935;50.782;6.074;2022-12-28T09:32:40;99261.91;;;8.93;100.00
24858;BME280;12935;50.782;6.074;2022-12-28T09:35:06;99241.28;;;9.06;100.00
24858;BME280;12935;50.782;6.074;2022-12-28T09:37:31;99247.91;;;9.16;100.00
24858;BME280;12935;50.782;6.074;2022-12-28T09:39:56;99251.78;;;9.19;100.00
24858;BME280;12935;50.782;6.074;2022-12-28T09:42:25;99245.97;;;9.20;100.00
24858;BME280;12935;50.782;6.074;2022-12-28T09:45:01;99251.78;;;9.19;100.00
24858;BME280;12935;50.782;6.074;2022-12-28T09:47:47;99259.59;;;9.27;100.00
24858;BME280;12935;50.782;6.074;2022-12-28T09:53:22;99236.19;;;9.30;100.00
24858;BME280;12935;50.782;6.074;2022-12-28T09:58:30;99250.25;;;9.28;100.00
24858;BME280;12935;50.782;6.074;2022-12-28T10:00:59;99249.06;;;9.29;100.00
24858;BME280;12935;50.782;6.074;2022-12-28T10:03:37;99243.22;;;9.41;100.00
24858;BME280;12935;50.782;6.074;2022-12-28T10:06:16;99253.31;;;9.52;100.00
24858;BME280;12935;50.782;6.074;2022-12-28T10:08:52;99250.63;;;9.41;100.00
24858;BME280;12935;50.782;6.074;2022-12-28T10:11:28;99246.34;;;9.33;100.00
24858;BME280;12935;50.782;6.074;2022-12-28T10:14:10;99255.66;;;9.57;100.00
24858;BME280;12935;50.782;6.074;2022-12-28T10:16:42;99241.25;;;9.60;100.00
24858;BME280;12935;50.782;6.074;2022-12-28T10:19:11;99238.47;;;9.70;100.00
24858;BME280;12935;50.782;6.074;2022-12-28T10:21:39;99246.66;;;9.70;100.00
24858;BME280;12935;50.782;6.074;2022-12-28T10:24:06;99234.94;;;9.88;100.00
24858;BME280;12935;50.782;6.074;2022-12-28T10:26:33;99238.38;;;9.99;100.00
24858;BME280;12935;50.782;6.074;2022-12-28T10:28:59;99237.31;;;9.71;100.00
24858;BME280;12935;50.782;6.074;2022-12-28T10:31:34;99223.63;;;9.85;100.00
24858;BME280;12935;50.782;6.074;2022-12-28T10:34:00;99214.22;;;9.94;100.00
24858;BME280;12935;50.782;6.074;2022-12-28T10:36:30;99218.50;;;10.05;100.00
24858;BME280;12935;50.782;6.074;2022-12-28T10:38:57;99215.41;;;9.93;100.00
24858;BME280;12935;50.782;6.074;2022-12-28T10:41:32;99213.84;;;9.95;100.00
24858;BME280;12935;50.782;6.074;2022-12-28T10:43:58;99231.75;;;10.07;100.00
24858;BME280;12935;50.782;6.074;2022-12-28T10:46:24;99206.44;;;9.92;100.00
24858;BME280;12935;50.782;6.074;2022-12-28T10:48:53;99199.34;;;10.09;100.00
24858;BME280;12935;50.782;6.074;2022-12-28T10:51:28;99201.69;;;10.10;100.00
24858;BME280;12935;50.782;6.074;2022-12-28T10:53:55;99197.44;;;9.99;100.00
24858;BME280;12935;50.782;6.074;2022-12-28T10:56:27;99196.22;;;10.10;100.00
24858;BME280;12935;50.782;6.074;2022-12-28T10:58:54;99190.09;;;9.89;100.00
24858;BME280;12935;50.782;6.074;2022-12-28T11:01:40;99202.91;;;10.02;100.00
24858;BME280;12935;50.782;6.074;2022-12-28T11:04:15;99197.84;;;9.97;100.00
24858;BME280;12935;50.782;6.074;2022-12-28T11:06:54;99191.19;;;10.05;100.00
24858;BME280;12935;50.782;6.074;2022-12-28T11:09:29;99192.38;;;10.01;100.00
24858;BME280;12935;50.782;6.074;2022-12-28T11:12:41;99195.16;;;9.87;100.00
24858;BME280;12935;50.782;6.074;2022-12-28T11:15:00;99185.81;;;9.88;100.00
24858;BME280;12935;50.782;6.074;2022-12-28T11:17:27;99188.50;;;9.95;100.00
24858;BME280;12935;50.782;6.074;2022-12-28T11:19:55;99156.25;;;9.68;100.00
24858;BME280;12935;50.782;6.074;2022-12-28T11:22:23;99172.97;;;9.81;100.00
24858;BME280;12935;50.782;6.074;2022-12-28T11:24:50;99179.59;;;9.80;100.00
24858;BME280;12935;50.782;6.074;2022-12-28T11:27:17;99172.97;;;9.77;100.00
24858;BME280;12935;50.782;6.074;2022-12-28T11:29:45;99172.16;;;9.88;100.00
24858;BME280;12935;50.782;6.074;2022-12-28T11:32:17;99166.31;;;9.85;100.00
24858;BME280;12935;50.782;6.074;2022-12-28T11:34:45;99162.81;;;9.89;100.00
24858;BME280;12935;50.782;6.074;2022-12-28T11:37:12;99156.25;;;9.75;100.00
24858;BME280;12935;50.782;6.074;2022-12-28T11:42:08;99149.50;;;9.98;100.00
24858;BME280;12935;50.782;6.074;2022-12-28T11:47:18;99144.88;;;9.91;100.00
24858;BME280;12935;50.782;6.074;2022-12-28T11:49:45;99144.03;;;10.01;100.00
24858;BME280;12935;50.782;6.074;2022-12-28T11:54:55;99149.41;;;10.12;100.00
24858;BME280;12935;50.782;6.074;2022-12-28T12:10:47;99124.72;;;9.60;100.00
24858;BME280;12935;50.782;6.074;2022-12-28T12:15:48;99124.81;;;9.39;100.00
24858;BME280;12935;50.782;6.074;2022-12-28T12:18:23;99106.50;;;9.32;100.00
24858;BME280;12935;50.782;6.074;2022-12-28T12:20:53;99104.13;;;9.45;100.00
24858;BME280;12935;50.782;6.074;2022-12-28T12:23:35;99096.38;;;9.40;100.00
24858;BME280;12935;50.782;6.074;2022-12-28T12:26:23;99082.34;;;9.31;100.00
24858;BME280;12935;50.782;6.074;2022-12-28T12:28:53;99089.31;;;9.46;100.00
24858;BME280;12935;50.782;6.074;2022-12-28T12:31:42;99091.22;;;9.60;100.00
24858;BME280;12935;50.782;6.074;2022-12-28T12:34:16;99079.88;;;9.61;100.00
24858;BME280;12935;50.782;6.074;2022-12-28T12:39:43;99081.09;;;9.57;100.00
24858;BME280;12935;50.782;6.074;2022-12-28T12:42:53;99065.47;;;9.61;100.00
24858;BME280;12935;50.782;6.074;2022-12-28T12:45:34;99049.88;;;9.68;100.00
24858;BME280;12935;50.782;6.074;2022-12-28T12:48:23;99041.69;;;9.68;100.00
24858;BME280;12935;50.782;6.074;2022-12-28T12:56:44;99047.09;;;9.75;100.00
24858;BME280;12935;50.782;6.074;2022-12-28T13:04:39;99028.03;;;9.72;100.00
24858;BME280;12935;50.782;6.074;2022-12-28T13:07:21;99012.84;;;9.67;100.00
24858;BME280;12935;50.782;6.074;2022-12-28T13:09:48;99015.97;;;9.69;100.00
24858;BME280;12935;50.782;6.074;2022-12-28T13:12:16;98990.91;;;9.85;100.00
24858;BME280;12935;50.782;6.074;2022-12-28T13:15:01;98981.97;;;9.81;100.00
24858;BME280;12935;50.782;6.074;2022-12-28T13:17:28;98977.84;;;9.59;100.00
24858;BME280;12935;50.782;6.074;2022-12-28T13:20:16;98976.31;;;9.54;100.00
24858;BME280;12935;50.782;6.074;2022-12-28T13:22:44;98986.31;;;9.71;100.00
24858;BME280;12935;50.782;6.074;2022-12-28T13:25:28;98972.25;;;9.76;100.00
24858;BME280;12935;50.782;6.074;2022-12-28T13:27:54;98964.00;;;9.87;100.00
24858;BME280;12935;50.782;6.074;2022-12-28T13:30:21;98973.75;;;9.88;100.00
24858;BME280;12935;50.782;6.074;2022-12-28T13:32:54;98954.97;;;9.94;100.00
24858;BME280;12935;50.782;6.074;2022-12-28T13:35:22;98949.56;;;9.90;100.00
24858;BME280;12935;50.782;6.074;2022-12-28T13:38:12;98957.25;;;10.02;100.00
24858;BME280;12935;50.782;6.074;2022-12-28T13:40:38;98949.75;;;10.10;100.00
24858;BME280;12935;50.782;6.074;2022-12-28T13:45:59;98941.72;;;9.92;100.00
24858;BME280;12935;50.782;6.074;2022-12-28T13:48:26;98933.13;;;9.94;100.00
24858;BME280;12935;50.782;6.074;2022-12-28T13:50:52;98917.94;;;9.93;100.00
24858;BME280;12935;50.782;6.074;2022-12-28T13:53:22;98912.41;;;10.03;100.00
24858;BME280;12935;50.782;6.074;2022-12-28T13:55:52;98911.50;;;10.13;100.00
24858;BME280;12935;50.782;6.074;2022-12-28T13:58:21;98905.06;;;9.93;100.00
24858;BME280;12935;50.782;6.074;2022-12-28T14:00:50;98900.84;;;9.89;100.00
24858;BME280;12935;50.782;6.074;2022-12-28T14:03:16;98905.94;;;9.83;100.00
24858;BME280;12935;50.782;6.074;2022-12-28T14:05:44;98907.06;;;9.89;100.00
24858;BME280;12935;50.782;6.074;2022-12-28T14:08:12;98906.59;;;9.98;100.00
24858;BME280;12935;50.782;6.074;2022-12-28T14:10:39;98911.78;;;9.85;100.00
24858;BME280;12935;50.782;6.074;2022-12-28T14:13:06;98910.22;;;9.84;100.00
24858;BME280;12935;50.782;6.074;2022-12-28T14:15:34;98900.78;;;9.92;100.00
24858;BME280;12935;50.782;6.074;2022-12-28T14:18:00;98900.84;;;9.89;100.00
24858;BME280;12935;50.782;6.074;2022-12-28T14:20:25;98894.59;;;9.88;100.00
24858;BME280;12935;50.782;6.074;2022-12-28T14:22:51;98890.25;;;9.94;100.00